Thursday, September 20, 2018, 10:07 PM EDT
Back to Local

KMHT, Manchester Airport

Location: Manchester, NH, United States Lat: 42.933
Local Time: 10:07 PM EDT ( 2:07 GMT) Lon: -71.433
Time Zone: US/Eastern Elev: 232 ft

Show me the last for .
Show Decoded

2018-09-20 21:53 METAR KMHT 210153Z 12003KT 10SM OVC110 15/12 A3029 RMK AO2 SLP268 T01500122 =
2018-09-20 20:53 METAR KMHT 210053Z 00000KT 10SM FEW050 BKN120 16/13 A3029 RMK AO2 SLP271
                 T01560128 =
2018-09-20 19:53 METAR KMHT 202353Z 12006KT 10SM FEW025 BKN050 BKN150 16/12 A3028 RMK AO2 SLP265
                 T01560122 10183 20156 51014 =
2018-09-20 19:11 METAR KMHT 202311Z 12006KT 10SM SCT025 BKN048 16/12 A3027 RMK AO2 T01610122 =
2018-09-20 18:53 METAR KMHT 202253Z 13005KT 10SM BKN025 BKN050 17/12 A3026 RMK AO2 SLP261
                 T01670122 =
2018-09-20 17:53 METAR KMHT 202153Z 14006KT 10SM BKN025 BKN036 17/12 A3025 RMK AO2 SLP256
                 T01720122 =
2018-09-20 16:53 METAR KMHT 202053Z 14008KT 090V160 10SM SCT025 BKN038 BKN150 18/12 A3023 RMK AO2
                 SLP250 T01830122 55004 =
2018-09-20 15:53 METAR KMHT 201953Z 11005KT 10SM SCT025 BKN038 BKN150 18/13 A3023 RMK AO2 SLP249
                 T01830128 =
2018-09-20 15:08 METAR KMHT 201908Z VRB03KT 10SM SCT027 OVC038 18/12 A3024 RMK AO2 T01780122 =
2018-09-20 14:53 METAR KMHT 201853Z 10005KT 10SM BKN027 OVC040 17/12 A3024 RMK AO2 SLP253
                 T01720122 =
2018-09-20 14:26 METAR KMHT 201826Z 08006KT 10SM BKN027 OVC040 18/13 A3024 RMK AO2 T01780128 =
2018-09-20 13:53 METAR KMHT 201753Z 10005KT 10SM SCT027 OVC038 18/12 A3025 RMK AO2 SLP255
                 T01780122 10183 20144 58006 =
2018-09-20 13:42 METAR KMHT 201742Z 08006KT 10SM SCT027 OVC038 18/12 A3025 RMK AO2 T01780122 =
2018-09-20 12:53 METAR KMHT 201653Z 09004KT 10SM BKN025 BKN032 OVC044 18/12 A3026 RMK AO2 SLP257
                 T01780117 =
2018-09-20 11:53 METAR KMHT 201553Z 02006KT 10SM BKN026 BKN030 18/12 A3026 RMK AO2 SLP260
                 T01780117 =
2018-09-20 11:23 METAR KMHT 201523Z 16003KT 10SM BKN022 BKN028 17/12 A3026 RMK AO2 T01720122 =
2018-09-20 11:00 METAR KMHT 201500Z 09004KT 10SM SCT019 17/12 A3027 RMK AO2 T01720122 =
2018-09-20 10:53 METAR KMHT 201453Z 09005KT 10SM BKN025 BKN100 17/12 A3026 RMK AO2 SLP261
                 T01670122 50015 =
2018-09-20 09:53 METAR KMHT 201353Z 03008KT 10SM BKN017 OVC025 16/12 A3027 RMK AO2 SLP262
                 T01610122 =
2018-09-20 09:14 METAR KMHT 201314Z 03005KT 10SM FEW011 OVC017 16/12 A3026 RMK AO2 T01560117 =
2018-09-20 08:53 METAR KMHT 201253Z 06006KT 10SM OVC012 15/12 A3025 RMK AO2 SLP255 T01500122 =
2018-09-20 07:53 METAR KMHT 201153Z 06005KT 10SM OVC012 14/12 A3022 RMK AO2 SLP246 T01440122
                 10156 20139 53022 =
2018-09-20 06:53 METAR KMHT 201053Z 07006KT 6SM BR BKN007 BKN013 OVC022 14/13 A3018 RMK AO2
                 SLP233 T01440128 =
2018-09-20 06:35 METAR KMHT 201035Z 04004KT 2SM BR BKN007 OVC011 14/13 A3018 RMK AO2 TWR VIS 3
                 CIG 005V009 T01390133 =
2018-09-20 05:53 METAR KMHT 200953Z 02004KT 7SM OVC008 14/13 A3016 RMK AO2 CIG 007V012 SLP226
                 T01440133 =
2018-09-20 05:33 METAR KMHT 200933Z 04006KT 10SM OVC009 14/13 A3016 RMK AO2 CIG 008V012 T01440128
                 =
2018-09-20 04:53 METAR KMHT 200853Z 02005KT 10SM BKN012 OVC016 15/13 A3015 RMK AO2 SLP223
                 T01500128 53007 =
2018-09-20 04:25 METAR KMHT 200825Z 06007KT 10SM BKN014 OVC020 15/13 A3014 RMK AO2 T01500128 =
2018-09-20 03:53 METAR KMHT 200753Z 03004KT 10SM OVC019 15/13 A3014 RMK AO2 SLP219 T01500128 =
2018-09-20 02:53 METAR KMHT 200653Z 04006KT 10SM BKN020 OVC050 16/13 A3013 RMK AO2 SLP215
                 T01560128 =
2018-09-20 01:53 METAR KMHT 200553Z 05005KT 10SM SCT014 BKN021 OVC050 16/13 A3013 RMK AO2 SLP216
                 T01560128 10161 20156 51012 =
2018-09-20 00:53 METAR KMHT 200453Z 03004KT 10SM BKN019 OVC050 16/13 A3012 RMK AO2 SLP212
                 T01610128 402060156 =
2018-09-19 23:53 METAR KMHT 200353Z 01003KT 10SM FEW024 OVC050 16/13 A3012 RMK AO2 SLP211
                 T01560133 =
2018-09-19 22:53 METAR KMHT 200253Z 06003KT 10SM FEW026 OVC050 16/13 A3010 RMK AO2 SLP204
                 T01560133 50013 =

Support USWX by starting your Amazon purchase here.